sensor_id;sensor_type;location;lat;lon;timestamp;P1;durP1;ratioP1;P2;durP2;ratioP2
2840;SDS011;53423;49.224;12.074;2023-06-10T00:02:27;7.43;;;6.80;;
2840;SDS011;53423;49.224;12.074;2023-06-10T00:04:55;7.10;;;6.60;;
2840;SDS011;53423;49.224;12.074;2023-06-10T00:07:23;7.17;;;6.47;;
2840;SDS011;53423;49.224;12.074;2023-06-10T00:09:51;6.60;;;6.10;;
2840;SDS011;53423;49.224;12.074;2023-06-10T00:12:21;7.50;;;6.90;;
2840;SDS011;53423;49.224;12.074;2023-06-10T00:14:49;7.87;;;7.17;;
2840;SDS011;53423;49.224;12.074;2023-06-10T00:17:20;6.83;;;6.33;;
2840;SDS011;53423;49.224;12.074;2023-06-10T00:19:49;7.80;;;7.17;;
2840;SDS011;53423;49.224;12.074;2023-06-10T00:22:17;7.33;;;6.73;;
2840;SDS011;53423;49.224;12.074;2023-06-10T00:24:45;7.57;;;6.87;;
2840;SDS011;53423;49.224;12.074;2023-06-10T00:27:14;7.63;;;7.03;;
2840;SDS011;53423;49.224;12.074;2023-06-10T00:29:43;7.50;;;6.90;;
2840;SDS011;53423;49.224;12.074;2023-06-10T00:32:11;7.70;;;7.10;;
2840;SDS011;53423;49.224;12.074;2023-06-10T00:34:39;8.07;;;7.27;;
2840;SDS011;53423;49.224;12.074;2023-06-10T00:37:07;7.97;;;7.37;;
2840;SDS011;53423;49.224;12.074;2023-06-10T00:39:35;7.37;;;6.77;;
2840;SDS011;53423;49.224;12.074;2023-06-10T00:42:03;7.33;;;6.73;;
2840;SDS011;53423;49.224;12.074;2023-06-10T00:44:33;6.93;;;6.40;;
2840;SDS011;53423;49.224;12.074;2023-06-10T00:47:02;6.70;;;6.10;;
2840;SDS011;53423;49.224;12.074;2023-06-10T00:49:31;6.83;;;6.23;;
2840;SDS011;53423;49.224;12.074;2023-06-10T00:51:59;8.57;;;7.20;;
2840;SDS011;53423;49.224;12.074;2023-06-10T00:54:27;7.53;;;6.93;;
2840;SDS011;53423;49.224;12.074;2023-06-10T00:56:56;7.60;;;7.00;;
2840;SDS011;53423;49.224;12.074;2023-06-10T00:59:24;7.70;;;7.00;;
2840;SDS011;53423;49.224;12.074;2023-06-10T01:01:52;8.17;;;7.53;;
2840;SDS011;53423;49.224;12.074;2023-06-10T01:04:23;7.63;;;7.03;;
2840;SDS011;53423;49.224;12.074;2023-06-10T01:06:52;7.40;;;6.80;;
2840;SDS011;53423;49.224;12.074;2023-06-10T01:09:25;8.30;;;7.47;;
2840;SDS011;53423;49.224;12.074;2023-06-10T01:12:02;7.63;;;7.03;;
2840;SDS011;53423;49.224;12.074;2023-06-10T01:14:37;7.80;;;7.20;;
2840;SDS011;53423;49.224;12.074;2023-06-10T01:17:11;7.90;;;7.20;;
2840;SDS011;53423;49.224;12.074;2023-06-10T01:19:44;7.73;;;7.03;;
2840;SDS011;53423;49.224;12.074;2023-06-10T01:22:24;8.47;;;7.63;;
2840;SDS011;53423;49.224;12.074;2023-06-10T01:24:54;7.63;;;7.03;;
2840;SDS011;53423;49.224;12.074;2023-06-10T01:27:26;8.17;;;7.47;;
2840;SDS011;53423;49.224;12.074;2023-06-10T01:30:00;7.80;;;7.20;;
2840;SDS011;53423;49.224;12.074;2023-06-10T01:32:34;7.57;;;6.93;;
2840;SDS011;53423;49.224;12.074;2023-06-10T01:35:05;7.83;;;6.93;;
2840;SDS011;53423;49.224;12.074;2023-06-10T01:37:37;7.37;;;6.77;;
2840;SDS011;53423;49.224;12.074;2023-06-10T01:40:07;7.23;;;6.53;;
2840;SDS011;53423;49.224;12.074;2023-06-10T01:42:36;7.80;;;7.20;;
2840;SDS011;53423;49.224;12.074;2023-06-10T01:45:05;8.80;;;8.00;;
2840;SDS011;53423;49.224;12.074;2023-06-10T01:47:34;8.27;;;7.63;;
2840;SDS011;53423;49.224;12.074;2023-06-10T01:50:03;8.67;;;7.97;;
2840;SDS011;53423;49.224;12.074;2023-06-10T01:52:31;7.30;;;6.70;;
2840;SDS011;53423;49.224;12.074;2023-06-10T01:55:00;7.97;;;7.20;;
2840;SDS011;53423;49.224;12.074;2023-06-10T01:57:29;8.47;;;7.67;;
2840;SDS011;53423;49.224;12.074;2023-06-10T01:59:57;7.90;;;7.20;;
2840;SDS011;53423;49.224;12.074;2023-06-10T02:02:25;7.20;;;6.60;;
2840;SDS011;53423;49.224;12.074;2023-06-10T02:04:53;8.40;;;7.60;;
2840;SDS011;53423;49.224;12.074;2023-06-10T02:07:21;7.80;;;7.20;;
2840;SDS011;53423;49.224;12.074;2023-06-10T02:09:49;8.33;;;7.63;;
2840;SDS011;53423;49.224;12.074;2023-06-10T02:12:18;8.40;;;7.70;;
2840;SDS011;53423;49.224;12.074;2023-06-10T02:14:46;7.50;;;7.00;;
2840;SDS011;53423;49.224;12.074;2023-06-10T02:17:14;8.27;;;7.57;;
2840;SDS011;53423;49.224;12.074;2023-06-10T02:19:42;9.13;;;8.40;;
2840;SDS011;53423;49.224;12.074;2023-06-10T02:22:10;8.30;;;7.60;;
2840;SDS011;53423;49.224;12.074;2023-06-10T02:24:38;8.53;;;7.77;;
2840;SDS011;53423;49.224;12.074;2023-06-10T02:27:06;8.90;;;8.10;;
2840;SDS011;53423;49.224;12.074;2023-06-10T02:29:35;8.93;;;8.23;;
2840;SDS011;53423;49.224;12.074;2023-06-10T02:32:04;7.93;;;7.33;;
2840;SDS011;53423;49.224;12.074;2023-06-10T02:34:36;7.97;;;7.30;;
2840;SDS011;53423;49.224;12.074;2023-06-10T02:37:04;8.17;;;7.50;;
2840;SDS011;53423;49.224;12.074;2023-06-10T02:39:32;7.87;;;7.17;;
2840;SDS011;53423;49.224;12.074;2023-06-10T02:42:00;8.40;;;7.70;;
2840;SDS011;53423;49.224;12.074;2023-06-10T02:44:28;7.90;;;7.30;;
2840;SDS011;53423;49.224;12.074;2023-06-10T02:46:57;8.27;;;7.57;;
2840;SDS011;53423;49.224;12.074;2023-06-10T02:49:26;8.53;;;7.83;;
2840;SDS011;53423;49.224;12.074;2023-06-10T02:51:54;8.60;;;7.90;;
2840;SDS011;53423;49.224;12.074;2023-06-10T02:54:23;9.10;;;8.30;;
2840;SDS011;53423;49.224;12.074;2023-06-10T02:56:51;9.83;;;9.03;;
2840;SDS011;53423;49.224;12.074;2023-06-10T02:59:22;9.03;;;8.33;;
2840;SDS011;53423;49.224;12.074;2023-06-10T03:01:50;8.57;;;7.77;;
2840;SDS011;53423;49.224;12.074;2023-06-10T03:04:19;9.50;;;8.60;;
2840;SDS011;53423;49.224;12.074;2023-06-10T03:06:49;8.13;;;7.43;;
2840;SDS011;53423;49.224;12.074;2023-06-10T03:09:17;8.43;;;7.60;;
2840;SDS011;53423;49.224;12.074;2023-06-10T03:11:45;9.10;;;8.40;;
2840;SDS011;53423;49.224;12.074;2023-06-10T03:14:13;8.70;;;8.00;;
2840;SDS011;53423;49.224;12.074;2023-06-10T03:16:40;8.97;;;8.17;;
2840;SDS011;53423;49.224;12.074;2023-06-10T03:19:09;9.60;;;8.80;;
2840;SDS011;53423;49.224;12.074;2023-06-10T03:21:38;9.13;;;8.33;;
2840;SDS011;53423;49.224;12.074;2023-06-10T03:24:07;9.67;;;8.77;;
2840;SDS011;53423;49.224;12.074;2023-06-10T03:26:37;9.37;;;8.60;;
2840;SDS011;53423;49.224;12.074;2023-06-10T03:29:05;8.97;;;8.27;;
2840;SDS011;53423;49.224;12.074;2023-06-10T03:31:33;9.60;;;8.80;;
2840;SDS011;53423;49.224;12.074;2023-06-10T03:34:01;9.67;;;8.83;;
2840;SDS011;53423;49.224;12.074;2023-06-10T03:36:29;10.30;;;9.50;;
2840;SDS011;53423;49.224;12.074;2023-06-10T03:38:58;10.20;;;9.30;;
2840;SDS011;53423;49.224;12.074;2023-06-10T03:41:26;9.40;;;8.60;;
2840;SDS011;53423;49.224;12.074;2023-06-10T03:43:54;9.80;;;8.80;;
2840;SDS011;53423;49.224;12.074;2023-06-10T03:46:22;9.97;;;9.17;;
2840;SDS011;53423;49.224;12.074;2023-06-10T03:48:51;9.83;;;9.03;;
2840;SDS011;53423;49.224;12.074;2023-06-10T03:51:18;9.87;;;9.13;;
2840;SDS011;53423;49.224;12.074;2023-06-10T03:53:46;9.73;;;8.93;;
2840;SDS011;53423;49.224;12.074;2023-06-10T03:56:16;10.03;;;9.10;;
2840;SDS011;53423;49.224;12.074;2023-06-10T03:58:44;9.17;;;8.37;;
2840;SDS011;53423;49.224;12.074;2023-06-10T04:01:13;9.20;;;8.30;;
2840;SDS011;53423;49.224;12.074;2023-06-10T04:03:41;10.07;;;9.10;;
2840;SDS011;53423;49.224;12.074;2023-06-10T04:06:10;9.80;;;9.00;;
2840;SDS011;53423;49.224;12.074;2023-06-10T04:08:38;9.13;;;8.33;;
2840;SDS011;53423;49.224;12.074;2023-06-10T04:11:06;9.30;;;8.50;;
2840;SDS011;53423;49.224;12.074;2023-06-10T04:13:36;9.53;;;8.63;;
2840;SDS011;53423;49.224;12.074;2023-06-10T04:16:04;8.63;;;7.83;;
2840;SDS011;53423;49.224;12.074;2023-06-10T04:18:32;10.47;;;9.37;;
2840;SDS011;53423;49.224;12.074;2023-06-10T04:21:00;9.73;;;8.93;;
2840;SDS011;53423;49.224;12.074;2023-06-10T04:23:28;9.70;;;8.90;;
2840;SDS011;53423;49.224;12.074;2023-06-10T04:25:57;10.20;;;9.40;;
2840;SDS011;53423;49.224;12.074;2023-06-10T04:28:25;10.07;;;9.27;;
2840;SDS011;53423;49.224;12.074;2023-06-10T04:30:55;10.77;;;9.87;;
2840;SDS011;53423;49.224;12.074;2023-06-10T04:33:23;10.27;;;9.47;;
2840;SDS011;53423;49.224;12.074;2023-06-10T04:35:51;10.33;;;9.43;;
2840;SDS011;53423;49.224;12.074;2023-06-10T04:38:19;10.93;;;10.03;;
2840;SDS011;53423;49.224;12.074;2023-06-10T04:40:47;13.23;;;10.10;;
2840;SDS011;53423;49.224;12.074;2023-06-10T04:43:15;11.57;;;10.67;;
2840;SDS011;53423;49.224;12.074;2023-06-10T04:45:43;11.73;;;10.73;;
2840;SDS011;53423;49.224;12.074;2023-06-10T04:48:13;11.90;;;10.83;;
2840;SDS011;53423;49.224;12.074;2023-06-10T04:50:41;12.23;;;11.00;;
2840;SDS011;53423;49.224;12.074;2023-06-10T04:53:09;12.97;;;11.77;;
2840;SDS011;53423;49.224;12.074;2023-06-10T04:55:37;12.90;;;11.83;;
2840;SDS011;53423;49.224;12.074;2023-06-10T04:58:05;12.53;;;11.33;;
2840;SDS011;53423;49.224;12.074;2023-06-10T05:00:33;11.93;;;10.93;;
2840;SDS011;53423;49.224;12.074;2023-06-10T05:03:01;12.47;;;11.47;;
2840;SDS011;53423;49.224;12.074;2023-06-10T05:05:30;11.40;;;10.50;;
2840;SDS011;53423;49.224;12.074;2023-06-10T05:07:58;11.63;;;10.57;;
2840;SDS011;53423;49.224;12.074;2023-06-10T05:10:26;11.60;;;10.60;;
2840;SDS011;53423;49.224;12.074;2023-06-10T05:12:57;11.77;;;10.87;;
2840;SDS011;53423;49.224;12.074;2023-06-10T05:15:25;12.07;;;11.07;;
2840;SDS011;53423;49.224;12.074;2023-06-10T05:17:55;11.63;;;10.63;;
2840;SDS011;53423;49.224;12.074;2023-06-10T05:20:24;11.37;;;10.37;;
2840;SDS011;53423;49.224;12.074;2023-06-10T05:22:54;11.80;;;10.80;;
2840;SDS011;53423;49.224;12.074;2023-06-10T05:25:22;10.97;;;10.07;;
2840;SDS011;53423;49.224;12.074;2023-06-10T05:27:50;11.17;;;10.27;;
2840;SDS011;53423;49.224;12.074;2023-06-10T05:30:18;11.43;;;10.50;;
2840;SDS011;53423;49.224;12.074;2023-06-10T05:32:46;11.00;;;10.03;;
2840;SDS011;53423;49.224;12.074;2023-06-10T05:35:15;11.43;;;10.43;;
2840;SDS011;53423;49.224;12.074;2023-06-10T05:37:43;10.57;;;9.63;;
2840;SDS011;53423;49.224;12.074;2023-06-10T05:40:13;10.20;;;9.30;;
2840;SDS011;53423;49.224;12.074;2023-06-10T05:42:40;9.97;;;9.17;;
2840;SDS011;53423;49.224;12.074;2023-06-10T05:45:09;9.27;;;8.47;;
2840;SDS011;53423;49.224;12.074;2023-06-10T05:47:38;8.80;;;8.10;;
2840;SDS011;53423;49.224;12.074;2023-06-10T05:50:06;8.07;;;7.47;;
2840;SDS011;53423;49.224;12.074;2023-06-10T05:52:35;8.50;;;7.80;;
2840;SDS011;53423;49.224;12.074;2023-06-10T05:55:06;8.20;;;7.57;;
2840;SDS011;53423;49.224;12.074;2023-06-10T05:57:37;8.03;;;7.43;;
2840;SDS011;53423;49.224;12.074;2023-06-10T06:00:05;8.27;;;7.67;;
2840;SDS011;53423;49.224;12.074;2023-06-10T06:02:34;8.23;;;7.63;;
2840;SDS011;53423;49.224;12.074;2023-06-10T06:05:02;8.93;;;8.23;;
2840;SDS011;53423;49.224;12.074;2023-06-10T06:07:30;8.50;;;7.90;;
2840;SDS011;53423;49.224;12.074;2023-06-10T06:09:58;8.23;;;7.60;;
2840;SDS011;53423;49.224;12.074;2023-06-10T06:12:26;8.50;;;7.80;;
2840;SDS011;53423;49.224;12.074;2023-06-10T06:14:56;8.50;;;7.80;;
2840;SDS011;53423;49.224;12.074;2023-06-10T06:17:23;8.63;;;7.73;;
2840;SDS011;53423;49.224;12.074;2023-06-10T06:19:52;7.87;;;7.23;;
2840;SDS011;53423;49.224;12.074;2023-06-10T06:22:19;8.07;;;7.47;;
2840;SDS011;53423;49.224;12.074;2023-06-10T06:24:48;7.80;;;7.20;;
2840;SDS011;53423;49.224;12.074;2023-06-10T06:27:17;7.93;;;7.33;;
2840;SDS011;53423;49.224;12.074;2023-06-10T06:29:45;8.80;;;8.10;;
2840;SDS011;53423;49.224;12.074;2023-06-10T06:32:15;7.77;;;7.17;;
2840;SDS011;53423;49.224;12.074;2023-06-10T06:34:42;8.17;;;7.50;;
2840;SDS011;53423;49.224;12.074;2023-06-10T06:37:10;8.02;;;7.47;;
2840;SDS011;53423;49.224;12.074;2023-06-10T06:39:38;8.43;;;7.63;;
2840;SDS011;53423;49.224;12.074;2023-06-10T06:42:06;8.23;;;7.63;;
2840;SDS011;53423;49.224;12.074;2023-06-10T06:44:35;7.90;;;7.20;;
2840;SDS011;53423;49.224;12.074;2023-06-10T06:47:03;8.52;;;7.93;;
2840;SDS011;53423;49.224;12.074;2023-06-10T06:49:32;8.05;;;7.45;;
2840;SDS011;53423;49.224;12.074;2023-06-10T06:52:00;8.82;;;8.13;;
2840;SDS011;53423;49.224;12.074;2023-06-10T06:54:28;8.32;;;7.70;;
2840;SDS011;53423;49.224;12.074;2023-06-10T06:56:56;7.95;;;7.35;;
2840;SDS011;53423;49.224;12.074;2023-06-10T06:59:24;8.45;;;7.75;;
2840;SDS011;53423;49.224;12.074;2023-06-10T07:01:53;7.82;;;7.22;;
2840;SDS011;53423;49.224;12.074;2023-06-10T07:04:21;8.05;;;7.35;;
2840;SDS011;53423;49.224;12.074;2023-06-10T07:06:51;7.32;;;6.82;;
2840;SDS011;53423;49.224;12.074;2023-06-10T07:09:19;8.27;;;7.68;;
2840;SDS011;53423;49.224;12.074;2023-06-10T07:11:46;8.07;;;7.47;;
2840;SDS011;53423;49.224;12.074;2023-06-10T07:14:14;7.75;;;7.15;;
2840;SDS011;53423;49.224;12.074;2023-06-10T07:16:42;8.30;;;7.70;;
2840;SDS011;53423;49.224;12.074;2023-06-10T07:19:11;7.82;;;7.03;;
2840;SDS011;53423;49.224;12.074;2023-06-10T07:21:39;7.63;;;7.03;;
2840;SDS011;53423;49.224;12.074;2023-06-10T07:24:09;7.53;;;7.03;;
2840;SDS011;53423;49.224;12.074;2023-06-10T07:26:37;7.65;;;7.13;;
2840;SDS011;53423;49.224;12.074;2023-06-10T07:29:05;6.97;;;6.45;;
2840;SDS011;53423;49.224;12.074;2023-06-10T07:31:33;7.10;;;6.57;;
2840;SDS011;53423;49.224;12.074;2023-06-10T07:34:01;7.03;;;6.35;;
2840;SDS011;53423;49.224;12.074;2023-06-10T07:36:29;7.32;;;6.63;;
2840;SDS011;53423;49.224;12.074;2023-06-10T07:38:57;7.13;;;6.63;;
2840;SDS011;53423;49.224;12.074;2023-06-10T07:41:26;7.75;;;7.15;;
2840;SDS011;53423;49.224;12.074;2023-06-10T07:43:54;7.28;;;6.78;;
2840;SDS011;53423;49.224;12.074;2023-06-10T07:46:22;7.45;;;6.85;;
2840;SDS011;53423;49.224;12.074;2023-06-10T07:48:51;6.82;;;6.28;;
2840;SDS011;53423;49.224;12.074;2023-06-10T07:51:19;7.45;;;6.80;;
2840;SDS011;53423;49.224;12.074;2023-06-10T07:53:47;6.93;;;6.43;;
2840;SDS011;53423;49.224;12.074;2023-06-10T07:56:15;7.43;;;6.82;;
2840;SDS011;53423;49.224;12.074;2023-06-10T07:58:44;6.95;;;6.40;;
2840;SDS011;53423;49.224;12.074;2023-06-10T08:01:12;7.10;;;6.60;;
2840;SDS011;53423;49.224;12.074;2023-06-10T08:03:40;6.75;;;6.18;;
2840;SDS011;53423;49.224;12.074;2023-06-10T08:06:08;7.22;;;6.72;;
2840;SDS011;53423;49.224;12.074;2023-06-10T08:08:37;6.50;;;6.00;;
2840;SDS011;53423;49.224;12.074;2023-06-10T08:11:08;6.90;;;6.30;;
2840;SDS011;53423;49.224;12.074;2023-06-10T08:13:36;6.25;;;5.75;;
2840;SDS011;53423;49.224;12.074;2023-06-10T08:16:05;6.10;;;5.70;;
2840;SDS011;53423;49.224;12.074;2023-06-10T08:18:33;6.40;;;5.90;;
2840;SDS011;53423;49.224;12.074;2023-06-10T08:21:01;5.57;;;5.18;;
2840;SDS011;53423;49.224;12.074;2023-06-10T08:23:30;5.88;;;5.47;;
2840;SDS011;53423;49.224;12.074;2023-06-10T08:25:58;5.40;;;5.00;;
2840;SDS011;53423;49.224;12.074;2023-06-10T08:28:26;5.72;;;5.32;;
2840;SDS011;53423;49.224;12.074;2023-06-10T08:30:53;5.57;;;5.18;;
2840;SDS011;53423;49.224;12.074;2023-06-10T08:33:24;5.70;;;5.20;;
2840;SDS011;53423;49.224;12.074;2023-06-10T08:35:52;5.90;;;5.43;;
2840;SDS011;53423;49.224;12.074;2023-06-10T08:38:20;6.72;;;6.13;;
2840;SDS011;53423;49.224;12.074;2023-06-10T08:40:49;5.88;;;5.43;;
2840;SDS011;53423;49.224;12.074;2023-06-10T08:43:25;6.35;;;5.82;;
2840;SDS011;53423;49.224;12.074;2023-06-10T08:46:00;5.95;;;5.45;;
2840;SDS011;53423;49.224;12.074;2023-06-10T08:48:30;5.35;;;4.97;;
2840;SDS011;53423;49.224;12.074;2023-06-10T08:51:04;5.30;;;4.97;;
2840;SDS011;53423;49.224;12.074;2023-06-10T08:53:33;5.70;;;5.30;;
2840;SDS011;53423;49.224;12.074;2023-06-10T08:56:05;5.72;;;5.30;;
2840;SDS011;53423;49.224;12.074;2023-06-10T08:58:33;5.85;;;5.35;;
2840;SDS011;53423;49.224;12.074;2023-06-10T09:01:08;5.10;;;4.70;;
2840;SDS011;53423;49.224;12.074;2023-06-10T09:03:38;5.10;;;4.70;;
2840;SDS011;53423;49.224;12.074;2023-06-10T09:06:07;5.72;;;5.32;;
2840;SDS011;53423;49.224;12.074;2023-06-10T09:08:35;5.05;;;4.65;;
2840;SDS011;53423;49.224;12.074;2023-06-10T09:11:03;5.30;;;4.90;;
2840;SDS011;53423;49.224;12.074;2023-06-10T09:13:31;5.00;;;4.70;;
2840;SDS011;53423;49.224;12.074;2023-06-10T09:15:59;5.50;;;5.20;;
2840;SDS011;53423;49.224;12.074;2023-06-10T09:18:28;5.57;;;5.18;;
2840;SDS011;53423;49.224;12.074;2023-06-10T09:20:58;5.10;;;4.75;;
2840;SDS011;53423;49.224;12.074;2023-06-10T09:23:26;7.25;;;5.00;;
2840;SDS011;53423;49.224;12.074;2023-06-10T09:25:58;5.30;;;4.90;;
2840;SDS011;53423;49.224;12.074;2023-06-10T09:28:26;5.38;;;4.88;;
2840;SDS011;53423;49.224;12.074;2023-06-10T09:33:40;5.45;;;5.05;;
2840;SDS011;53423;49.224;12.074;2023-06-10T09:36:09;5.32;;;4.90;;
2840;SDS011;53423;49.224;12.074;2023-06-10T09:38:37;5.15;;;4.70;;
2840;SDS011;53423;49.224;12.074;2023-06-10T09:41:05;5.25;;;4.85;;
2840;SDS011;53423;49.224;12.074;2023-06-10T09:43:40;5.10;;;4.80;;
2840;SDS011;53423;49.224;12.074;2023-06-10T09:46:15;5.20;;;4.80;;
2840;SDS011;53423;49.224;12.074;2023-06-10T09:48:47;5.32;;;5.03;;
2840;SDS011;53423;49.224;12.074;2023-06-10T09:51:17;5.45;;;5.05;;
2840;SDS011;53423;49.224;12.074;2023-06-10T09:53:47;5.45;;;5.13;;
2840;SDS011;53423;49.224;12.074;2023-06-10T09:56:17;5.35;;;4.95;;
2840;SDS011;53423;49.224;12.074;2023-06-10T09:58:45;6.07;;;5.57;;
2840;SDS011;53423;49.224;12.074;2023-06-10T10:01:13;6.00;;;5.50;;
2840;SDS011;53423;49.224;12.074;2023-06-10T10:03:43;5.68;;;5.22;;
2840;SDS011;53423;49.224;12.074;2023-06-10T10:06:12;5.53;;;5.13;;
2840;SDS011;53423;49.224;12.074;2023-06-10T10:08:43;5.70;;;5.30;;
2840;SDS011;53423;49.224;12.074;2023-06-10T10:11:12;5.80;;;5.40;;
2840;SDS011;53423;49.224;12.074;2023-06-10T10:13:41;5.53;;;5.18;;
2840;SDS011;53423;49.224;12.074;2023-06-10T10:16:14;5.50;;;5.10;;
2840;SDS011;53423;49.224;12.074;2023-06-10T10:18:45;5.10;;;4.78;;
2840;SDS011;53423;49.224;12.074;2023-06-10T10:21:17;5.45;;;5.05;;
2840;SDS011;53423;49.224;12.074;2023-06-10T10:23:53;5.78;;;5.38;;
2840;SDS011;53423;49.224;12.074;2023-06-10T10:26:25;6.13;;;5.63;;
2840;SDS011;53423;49.224;12.074;2023-06-10T10:28:58;5.63;;;5.18;;
2840;SDS011;53423;49.224;12.074;2023-06-10T10:31:34;5.50;;;5.03;;
2840;SDS011;53423;49.224;12.074;2023-06-10T10:34:04;5.72;;;5.32;;
2840;SDS011;53423;49.224;12.074;2023-06-10T10:36:34;5.68;;;5.28;;
2840;SDS011;53423;49.224;12.074;2023-06-10T10:39:05;5.78;;;5.38;;
2840;SDS011;53423;49.224;12.074;2023-06-10T10:41:34;5.47;;;5.07;;
2840;SDS011;53423;49.224;12.074;2023-06-10T10:44:04;5.85;;;5.45;;
2840;SDS011;53423;49.224;12.074;2023-06-10T10:46:41;5.72;;;5.32;;
2840;SDS011;53423;49.224;12.074;2023-06-10T10:49:10;5.88;;;5.47;;
2840;SDS011;53423;49.224;12.074;2023-06-10T10:51:54;5.50;;;5.10;;
2840;SDS011;53423;49.224;12.074;2023-06-10T10:54:29;5.80;;;5.40;;
2840;SDS011;53423;49.224;12.074;2023-06-10T10:57:14;5.70;;;5.30;;
2840;SDS011;53423;49.224;12.074;2023-06-10T10:59:53;5.80;;;5.40;;
2840;SDS011;53423;49.224;12.074;2023-06-10T11:02:33;5.00;;;4.60;;
2840;SDS011;53423;49.224;12.074;2023-06-10T11:05:06;5.13;;;4.45;;
2840;SDS011;53423;49.224;12.074;2023-06-10T11:07:36;4.25;;;3.92;;
2840;SDS011;53423;49.224;12.074;2023-06-10T11:10:10;4.10;;;3.80;;
2840;SDS011;53423;49.224;12.074;2023-06-10T11:12:49;4.38;;;4.07;;
2840;SDS011;53423;49.224;12.074;2023-06-10T11:15:19;3.17;;;2.97;;
2840;SDS011;53423;49.224;12.074;2023-06-10T11:23:39;4.55;;;4.25;;
2840;SDS011;53423;49.224;12.074;2023-06-10T11:26:16;4.47;;;4.18;;
2840;SDS011;53423;49.224;12.074;2023-06-10T11:29:02;4.35;;;4.05;;
2840;SDS011;53423;49.224;12.074;2023-06-10T11:31:38;4.10;;;3.83;;
2840;SDS011;53423;49.224;12.074;2023-06-10T11:34:07;4.38;;;4.07;;
2840;SDS011;53423;49.224;12.074;2023-06-10T11:36:36;4.65;;;4.35;;
2840;SDS011;53423;49.224;12.074;2023-06-10T11:39:09;4.63;;;4.32;;
2840;SDS011;53423;49.224;12.074;2023-06-10T11:41:39;4.13;;;3.83;;
2840;SDS011;53423;49.224;12.074;2023-06-10T11:44:08;4.10;;;3.90;;
2840;SDS011;53423;49.224;12.074;2023-06-10T11:46:37;4.32;;;4.03;;
2840;SDS011;53423;49.224;12.074;2023-06-10T11:49:08;6.63;;;4.90;;
2840;SDS011;53423;49.224;12.074;2023-06-10T11:51:37;3.72;;;3.20;;
2840;SDS011;53423;49.224;12.074;2023-06-10T11:54:08;4.60;;;4.30;;
2840;SDS011;53423;49.224;12.074;2023-06-10T11:56:36;3.75;;;3.47;;
2840;SDS011;53423;49.224;12.074;2023-06-10T11:59:06;3.90;;;3.70;;
2840;SDS011;53423;49.224;12.074;2023-06-10T12:01:35;4.03;;;3.72;;
2840;SDS011;53423;49.224;12.074;2023-06-10T12:04:08;4.38;;;4.10;;
2840;SDS011;53423;49.224;12.074;2023-06-10T12:06:37;4.55;;;4.10;;
2840;SDS011;53423;49.224;12.074;2023-06-10T12:09:06;4.57;;;4.28;;
2840;SDS011;53423;49.224;12.074;2023-06-10T12:11:49;4.38;;;4.07;;
2840;SDS011;53423;49.224;12.074;2023-06-10T12:17:23;6.72;;;4.18;;
2840;SDS011;53423;49.224;12.074;2023-06-10T12:20:26;4.85;;;3.80;;
2840;SDS011;53423;49.224;12.074;2023-06-10T12:22:55;3.58;;;3.30;;
2840;SDS011;53423;49.224;12.074;2023-06-10T12:25:26;3.50;;;3.30;;
2840;SDS011;53423;49.224;12.074;2023-06-10T12:27:56;3.53;;;3.22;;
2840;SDS011;53423;49.224;12.074;2023-06-10T12:30:26;4.07;;;3.60;;
2840;SDS011;53423;49.224;12.074;2023-06-10T12:32:55;3.25;;;3.05;;
2840;SDS011;53423;49.224;12.074;2023-06-10T12:35:24;3.50;;;3.20;;
2840;SDS011;53423;49.224;12.074;2023-06-10T12:37:54;3.30;;;3.03;;
2840;SDS011;53423;49.224;12.074;2023-06-10T12:40:27;3.42;;;3.22;;
2840;SDS011;53423;49.224;12.074;2023-06-10T12:42:57;3.70;;;3.40;;
2840;SDS011;53423;49.224;12.074;2023-06-10T12:45:27;3.40;;;3.20;;
2840;SDS011;53423;49.224;12.074;2023-06-10T12:48:06;13.20;;;5.22;;
2840;SDS011;53423;49.224;12.074;2023-06-10T12:50:36;4.00;;;3.60;;
2840;SDS011;53423;49.224;12.074;2023-06-10T12:53:05;3.92;;;3.63;;
2840;SDS011;53423;49.224;12.074;2023-06-10T12:55:33;3.70;;;3.50;;
2840;SDS011;53423;49.224;12.074;2023-06-10T12:58:01;3.60;;;3.30;;
2840;SDS011;53423;49.224;12.074;2023-06-10T13:00:31;3.50;;;3.30;;
2840;SDS011;53423;49.224;12.074;2023-06-10T13:03:01;3.00;;;2.80;;
2840;SDS011;53423;49.224;12.074;2023-06-10T13:05:32;3.28;;;2.97;;
2840;SDS011;53423;49.224;12.074;2023-06-10T13:08:01;3.10;;;2.90;;
2840;SDS011;53423;49.224;12.074;2023-06-10T13:10:29;3.17;;;2.85;;
2840;SDS011;53423;49.224;12.074;2023-06-10T13:12:59;3.22;;;3.03;;
2840;SDS011;53423;49.224;12.074;2023-06-10T13:15:27;3.22;;;3.03;;
2840;SDS011;53423;49.224;12.074;2023-06-10T13:17:57;3.53;;;3.33;;
2840;SDS011;53423;49.224;12.074;2023-06-10T13:20:25;3.55;;;3.35;;
2840;SDS011;53423;49.224;12.074;2023-06-10T13:22:53;3.50;;;3.20;;
2840;SDS011;53423;49.224;12.074;2023-06-10T13:25:21;2.70;;;2.60;;
2840;SDS011;53423;49.224;12.074;2023-06-10T13:27:49;3.03;;;2.83;;
2840;SDS011;53423;49.224;12.074;2023-06-10T13:30:17;2.83;;;2.63;;
2840;SDS011;53423;49.224;12.074;2023-06-10T13:32:45;3.28;;;3.08;;
2840;SDS011;53423;49.224;12.074;2023-06-10T13:35:14;15.95;;;6.40;;
2840;SDS011;53423;49.224;12.074;2023-06-10T13:37:42;4.30;;;2.92;;
2840;SDS011;53423;49.224;12.074;2023-06-10T13:40:10;3.13;;;2.92;;
2840;SDS011;53423;49.224;12.074;2023-06-10T13:42:39;3.10;;;2.90;;
2840;SDS011;53423;49.224;12.074;2023-06-10T13:45:07;3.38;;;3.00;;
2840;SDS011;53423;49.224;12.074;2023-06-10T13:47:36;2.80;;;2.60;;
2840;SDS011;53423;49.224;12.074;2023-06-10T13:50:05;3.25;;;2.65;;
2840;SDS011;53423;49.224;12.074;2023-06-10T13:52:36;2.65;;;2.55;;
2840;SDS011;53423;49.224;12.074;2023-06-10T13:55:04;3.13;;;2.92;;
2840;SDS011;53423;49.224;12.074;2023-06-10T13:57:32;2.90;;;2.70;;
2840;SDS011;53423;49.224;12.074;2023-06-10T14:00:00;3.35;;;3.15;;
2840;SDS011;53423;49.224;12.074;2023-06-10T14:02:28;3.17;;;2.97;;
2840;SDS011;53423;49.224;12.074;2023-06-10T14:04:56;3.60;;;3.30;;
2840;SDS011;53423;49.224;12.074;2023-06-10T14:07:25;3.42;;;3.00;;
2840;SDS011;53423;49.224;12.074;2023-06-10T14:09:55;3.92;;;3.63;;
2840;SDS011;53423;49.224;12.074;2023-06-10T14:12:23;4.00;;;3.70;;
2840;SDS011;53423;49.224;12.074;2023-06-10T14:14:51;4.47;;;3.53;;
2840;SDS011;53423;49.224;12.074;2023-06-10T14:17:19;4.15;;;3.88;;
2840;SDS011;53423;49.224;12.074;2023-06-10T14:19:47;4.40;;;4.03;;
2840;SDS011;53423;49.224;12.074;2023-06-10T14:22:15;5.35;;;4.25;;
2840;SDS011;53423;49.224;12.074;2023-06-10T14:24:43;5.47;;;5.00;;
2840;SDS011;53423;49.224;12.074;2023-06-10T14:27:12;5.95;;;5.40;;
2840;SDS011;53423;49.224;12.074;2023-06-10T14:29:40;6.57;;;5.97;;
2840;SDS011;53423;49.224;12.074;2023-06-10T14:32:08;6.78;;;6.05;;
2840;SDS011;53423;49.224;12.074;2023-06-10T14:34:36;6.80;;;6.25;;
2840;SDS011;53423;49.224;12.074;2023-06-10T14:37:05;6.68;;;6.07;;
2840;SDS011;53423;49.224;12.074;2023-06-10T14:39:34;6.72;;;6.20;;
2840;SDS011;53423;49.224;12.074;2023-06-10T14:42:03;6.97;;;6.40;;
2840;SDS011;53423;49.224;12.074;2023-06-10T14:44:33;6.88;;;6.38;;
2840;SDS011;53423;49.224;12.074;2023-06-10T14:47:01;6.38;;;5.97;;
2840;SDS011;53423;49.224;12.074;2023-06-10T14:49:29;5.90;;;5.40;;
2840;SDS011;53423;49.224;12.074;2023-06-10T14:51:57;5.82;;;5.20;;
2840;SDS011;53423;49.224;12.074;2023-06-10T14:54:25;6.22;;;5.70;;
2840;SDS011;53423;49.224;12.074;2023-06-10T14:56:53;6.03;;;5.57;;
2840;SDS011;53423;49.224;12.074;2023-06-10T14:59:21;5.93;;;5.43;;
2840;SDS011;53423;49.224;12.074;2023-06-10T15:01:51;5.85;;;5.35;;
2840;SDS011;53423;49.224;12.074;2023-06-10T15:04:19;5.95;;;5.45;;
2840;SDS011;53423;49.224;12.074;2023-06-10T15:06:50;5.30;;;4.82;;
2840;SDS011;53423;49.224;12.074;2023-06-10T15:09:17;5.90;;;5.50;;
2840;SDS011;53423;49.224;12.074;2023-06-10T15:11:46;5.75;;;5.25;;